Portada
METAR-TAF:

METAR-TAF

Aeroports :

Suva, Fiji

latitud: 18-03S, longitud: 178-34E, altitud: 5 m

Observació

L'informe es va fer fa 1 hora i 3 minuts, a les 08:00 UTC
Vent 7 kt del Sud/Sud-Est
Temperatura 24°C
Humitat 83%
Pressió 1015 hPa
Visibilitat 10 km o més
Cel ennuvolat a una alçada de 1800 ft

METAR: NFNA 190800Z 15007KT 9999 BKN018 24/21 Q1015

Hora: 21:03 (09:03 UTC)

Pronòstic

L'informe es va fer fa 3 hores i 48 minuts, a les 05:15 UTC
Pronòstic vàlid del 19 a les 06 UTC al 20 a les 06 UTC
Vent 5 kt del Sud-Est
Visibilitat 10 km o més
Cel ennuvolat a una alçada de 2000 ft
Núvols disperses a una alçada de 4800 ft
Temporalment
l' 19 a les 06 UTC al 19 a les 12 UTC
Visibilitat: 5000 m
Cel ennuvolat a una alçada de 1800 ft
xàfecs de pluja

TAF: NFNA 190515Z 1906/2006 14005KT 9999 BKN020 SCT048 TEMPO 1906/1912 5000 SHRA BKN018

Observacions i pronòstics meteorològics de més de 4000 aeroports (METAR i TAF).

Les estacions disponibles són els punts grocs i vermells al mapa.

Posi el ratolí al punt desitjat per veure el nom de l'estació.

Feu clic per veure les observacions i els pronòstics meteorològics.

Per canviar el mapa: feu clic els botons verds amb una creu de color negre per apropar; al botó verd amb un guió per allunyar la imatge; o en les fletxes verdes per a mapes adjacents.


METAR-TAF: